Time;durP1;ratioP1;P1;durP2;ratioP2;P2;SDS_P1;SDS_P2;PMS_P1;PMS_P2;Temp;Humidity;BMP_temperature;BMP_pressure;BME280_temperature;BME280_humidity;BME280_pressure;Samples;Min_cycle;Max_cycle;Signal;HPM_P1;HPM_P2
2022/08/03 00:00:48;;;;;;;6.37;5.50;;;;;;;;;;5077012;28;20451;-63
2022/08/03 00:03:16;;;;;;;6.37;5.47;;;;;;;;;;5076610;28;20527;-63
2022/08/03 00:05:43;;;;;;;5.40;4.90;;;;;;;;;;5077160;28;20439;-63
2022/08/03 00:08:11;;;;;;;6.30;4.30;;;;;;;;;;5076777;28;20849;-63
2022/08/03 00:10:38;;;;;;;4.80;4.40;;;;;;;;;;5076832;28;20434;-63
2022/08/03 00:13:06;;;;;;;4.83;4.43;;;;;;;;;;5076397;28;21029;-63
2022/08/03 00:15:33;;;;;;;4.40;4.00;;;;;;;;;;5076643;28;20559;-63
2022/08/03 00:18:00;;;;;;;4.57;4.20;;;;;;;;;;5076692;28;20471;-63
2022/08/03 00:20:27;;;;;;;5.37;4.13;;;;;;;;;;5076658;28;20439;-63
2022/08/03 00:22:54;;;;;;;4.87;4.40;;;;;;;;;;5076649;28;20445;-63
2022/08/03 00:25:23;;;;;;;5.47;4.97;;;;;;;;;;5076448;28;20879;-63
2022/08/03 00:27:50;;;;;;;8.00;4.40;;;;;;;;;;5076718;28;20449;-63
2022/08/03 00:30:17;;;;;;;4.13;3.83;;;;;;;;;;5076289;28;20946;-63
2022/08/03 00:32:45;;;;;;;5.63;4.00;;;;;;;;;;5076949;28;20442;-64
2022/08/03 00:35:12;;;;;;;8.10;4.20;;;;;;;;;;5076184;28;20486;-63
2022/08/03 00:37:39;;;;;;;5.90;3.97;;;;;;;;;;5075993;28;20535;-63
2022/08/03 00:40:07;;;;;;;8.53;4.40;;;;;;;;;;5076194;28;20535;-63
2022/08/03 00:42:35;;;;;;;3.60;3.30;;;;;;;;;;5075529;28;20499;-63
2022/08/03 00:45:03;;;;;;;5.80;4.23;;;;;;;;;;5076143;28;20476;-63
2022/08/03 00:47:30;;;;;;;4.03;3.73;;;;;;;;;;5075791;28;20448;-63
2022/08/03 00:49:57;;;;;;;5.70;3.70;;;;;;;;;;5076275;28;20522;-63
2022/08/03 00:52:24;;;;;;;4.23;3.90;;;;;;;;;;5075789;28;21024;-63
2022/08/03 00:54:52;;;;;;;5.53;3.87;;;;;;;;;;5076285;28;20578;-63
2022/08/03 00:57:20;;;;;;;4.80;4.40;;;;;;;;;;5076010;28;20969;-63
2022/08/03 00:59:48;;;;;;;5.33;4.37;;;;;;;;;;5075856;28;20482;-63
2022/08/03 01:02:16;;;;;;;5.00;4.43;;;;;;;;;;5075563;28;20478;-63
2022/08/03 01:04:43;;;;;;;9.30;4.33;;;;;;;;;;5076148;28;20470;-63
2022/08/03 01:07:13;;;;;;;5.47;3.50;;;;;;;;;;5076143;28;20452;-63
2022/08/03 01:09:46;;;;;;;4.80;4.40;;;;;;;;;;5075826;28;20467;-63
2022/08/03 01:12:16;;;;;;;3.93;3.63;;;;;;;;;;5076012;28;20435;-63
2022/08/03 01:14:46;;;;;;;5.73;4.00;;;;;;;;;;5075897;28;20479;-63
2022/08/03 01:17:17;;;;;;;4.50;4.00;;;;;;;;;;5075602;28;20474;-62
2022/08/03 01:19:47;;;;;;;5.33;3.93;;;;;;;;;;5075268;28;20485;-62
2022/08/03 01:22:22;;;;;;;4.83;4.43;;;;;;;;;;5075212;28;20543;-63
2022/08/03 01:24:54;;;;;;;6.03;4.47;;;;;;;;;;5075559;28;20466;-63
2022/08/03 01:27:23;;;;;;;5.90;4.50;;;;;;;;;;5075407;28;20921;-63
2022/08/03 01:29:54;;;;;;;4.57;3.90;;;;;;;;;;5075798;28;20802;-63
2022/08/03 01:32:25;;;;;;;5.33;4.37;;;;;;;;;;5075056;28;21028;-63
2022/08/03 01:34:55;;;;;;;6.10;3.97;;;;;;;;;;5075350;28;20464;-63
2022/08/03 01:37:25;;;;;;;4.23;3.93;;;;;;;;;;5075301;28;21012;-63
2022/08/03 01:39:54;;;;;;;5.10;4.10;;;;;;;;;;5074788;28;20443;-63
2022/08/03 01:42:22;;;;;;;9.53;3.70;;;;;;;;;;5075120;28;20450;-63
2022/08/03 01:44:50;;;;;;;4.57;4.17;;;;;;;;;;5074923;28;20987;-63
2022/08/03 01:47:20;;;;;;;3.87;3.37;;;;;;;;;;5074866;28;20439;-63
2022/08/03 01:49:49;;;;;;;4.70;4.30;;;;;;;;;;5075375;28;20574;-63
2022/08/03 01:52:19;;;;;;;4.07;3.77;;;;;;;;;;5075369;28;20530;-63
2022/08/03 01:54:49;;;;;;;5.97;4.37;;;;;;;;;;5074169;28;20487;-63
2022/08/03 01:57:17;;;;;;;5.50;4.40;;;;;;;;;;5074828;28;20511;-63
2022/08/03 01:59:45;;;;;;;5.37;3.80;;;;;;;;;;5074370;28;20989;-63
2022/08/03 02:02:13;;;;;;;5.17;4.50;;;;;;;;;;5074890;28;20460;-63
2022/08/03 02:04:43;;;;;;;5.27;4.43;;;;;;;;;;5074550;28;20544;-63
2022/08/03 02:07:11;;;;;;;4.63;4.23;;;;;;;;;;5075427;28;20861;-63
2022/08/03 02:09:39;;;;;;;4.60;3.93;;;;;;;;;;5074488;28;20499;-63
2022/08/03 02:12:08;;;;;;;5.47;4.50;;;;;;;;;;5074588;28;20791;-63
2022/08/03 02:14:35;;;;;;;4.37;4.00;;;;;;;;;;5074311;28;20574;-64
2022/08/03 02:17:03;;;;;;;8.93;4.20;;;;;;;;;;5074087;28;20470;-64
2022/08/03 02:19:31;;;;;;;4.87;4.50;;;;;;;;;;5074348;28;20935;-64
2022/08/03 02:22:00;;;;;;;5.20;4.50;;;;;;;;;;5074463;28;20461;-63
2022/08/03 02:24:27;;;;;;;4.70;4.30;;;;;;;;;;5073988;28;20455;-63
2022/08/03 02:26:56;;;;;;;4.97;4.50;;;;;;;;;;5074154;28;20446;-63
2022/08/03 02:29:25;;;;;;;4.77;4.40;;;;;;;;;;5073918;28;20950;-63
2022/08/03 02:31:53;;;;;;;5.60;4.67;;;;;;;;;;5073725;28;20439;-64
2022/08/03 02:34:21;;;;;;;5.63;5.00;;;;;;;;;;5073787;28;20555;-64
2022/08/03 02:36:50;;;;;;;6.30;4.73;;;;;;;;;;5074037;28;20442;-64
2022/08/03 02:39:21;;;;;;;7.90;5.23;;;;;;;;;;5074007;28;20547;-63
2022/08/03 02:41:49;;;;;;;5.47;4.97;;;;;;;;;;5073970;28;20522;-64
2022/08/03 02:44:18;;;;;;;6.20;5.03;;;;;;;;;;5073578;28;20986;-63
2022/08/03 02:46:46;;;;;;;5.20;4.30;;;;;;;;;;5073981;28;20797;-63
2022/08/03 02:49:15;;;;;;;5.50;5.00;;;;;;;;;;5073852;28;20471;-63
2022/08/03 02:51:42;;;;;;;5.10;4.50;;;;;;;;;;5073706;28;20533;-63
2022/08/03 02:54:10;;;;;;;5.33;4.50;;;;;;;;;;5074423;28;20970;-64
2022/08/03 02:56:38;;;;;;;10.30;5.20;;;;;;;;;;5073572;28;20577;-63
2022/08/03 02:59:06;;;;;;;6.30;5.47;;;;;;;;;;5073732;28;20629;-64
2022/08/03 03:01:34;;;;;;;7.37;6.07;;;;;;;;;;5073353;28;20969;-63
2022/08/03 03:04:01;;;;;;;11.27;5.70;;;;;;;;;;5073704;28;20460;-63
2022/08/03 03:06:29;;;;;;;5.93;5.23;;;;;;;;;;5072681;28;20447;-63
2022/08/03 03:08:57;;;;;;;7.20;5.93;;;;;;;;;;5073664;28;20439;-63
2022/08/03 03:11:25;;;;;;;5.67;5.17;;;;;;;;;;5073487;28;20440;-63
2022/08/03 03:13:56;;;;;;;6.97;5.53;;;;;;;;;;5073601;28;20450;-64
2022/08/03 03:16:23;;;;;;;7.23;5.50;;;;;;;;;;5073690;28;20497;-63
2022/08/03 03:18:51;;;;;;;9.73;5.90;;;;;;;;;;5073532;28;20447;-63
2022/08/03 03:21:19;;;;;;;5.83;5.23;;;;;;;;;;5073570;28;20514;-64
2022/08/03 03:23:47;;;;;;;7.67;4.97;;;;;;;;;;5073937;28;20448;-64
2022/08/03 03:26:15;;;;;;;6.80;5.67;;;;;;;;;;5073322;28;20450;-64
2022/08/03 03:28:42;;;;;;;6.67;6.00;;;;;;;;;;5073656;28;20438;-64
2022/08/03 03:31:10;;;;;;;7.07;5.80;;;;;;;;;;5073327;28;20533;-64
2022/08/03 03:33:38;;;;;;;7.63;6.87;;;;;;;;;;5073382;28;20447;-63
2022/08/03 03:36:06;;;;;;;11.77;7.37;;;;;;;;;;5073176;28;20577;-64
2022/08/03 03:38:33;;;;;;;7.17;6.47;;;;;;;;;;5073023;28;20931;-64
2022/08/03 03:41:00;;;;;;;9.20;7.30;;;;;;;;;;5073253;28;20445;-64
2022/08/03 03:43:28;;;;;;;9.07;7.60;;;;;;;;;;5073448;28;20538;-64
2022/08/03 03:45:56;;;;;;;7.20;6.50;;;;;;;;;;5073200;28;20431;-63
2022/08/03 03:48:24;;;;;;;7.73;6.47;;;;;;;;;;5073242;28;20530;-63
2022/08/03 03:50:52;;;;;;;9.47;6.80;;;;;;;;;;5073412;28;20804;-64
2022/08/03 03:53:19;;;;;;;10.30;7.03;;;;;;;;;;5073039;28;20442;-64
2022/08/03 03:55:46;;;;;;;8.00;7.20;;;;;;;;;;5073189;28;20565;-64
2022/08/03 03:58:14;;;;;;;9.47;8.13;;;;;;;;;;5072790;28;20447;-63
2022/08/03 04:00:44;;;;;;;13.00;6.80;;;;;;;;;;5073357;28;20897;-63
2022/08/03 04:03:11;;;;;;;9.33;7.20;;;;;;;;;;5072230;28;20885;-64
2022/08/03 04:11:13;;;;;;;9.20;7.03;;;;;;;;;;5072817;28;20407;-64
2022/08/03 04:13:43;;;;;;;9.33;6.90;;;;;;;;;;5073058;28;20801;-63
2022/08/03 04:16:13;;;;;;;8.50;7.27;;;;;;;;;;5073095;28;20496;-65
2022/08/03 04:18:42;;;;;;;8.47;7.20;;;;;;;;;;5075713;28;20523;-63
2022/08/03 04:21:12;;;;;;;10.40;7.73;;;;;;;;;;5076375;28;20522;-64
2022/08/03 04:23:41;;;;;;;10.70;7.60;;;;;;;;;;5076643;28;20712;-64
2022/08/03 04:26:10;;;;;;;8.40;7.40;;;;;;;;;;5076590;28;20447;-64
2022/08/03 04:28:39;;;;;;;10.63;7.73;;;;;;;;;;5076492;28;20798;-64
2022/08/03 04:31:07;;;;;;;10.10;7.60;;;;;;;;;;5076527;28;20510;-65
2022/08/03 04:33:36;;;;;;;10.40;7.77;;;;;;;;;;5076378;28;20441;-64
2022/08/03 04:36:05;;;;;;;10.90;8.43;;;;;;;;;;5076020;28;20480;-64
2022/08/03 04:38:35;;;;;;;8.13;7.30;;;;;;;;;;5076146;28;20438;-64
2022/08/03 04:41:02;;;;;;;10.00;7.47;;;;;;;;;;5075759;28;20442;-64
2022/08/03 04:43:30;;;;;;;19.10;7.40;;;;;;;;;;5075552;28;20526;-64
2022/08/03 04:45:57;;;;;;;7.77;6.90;;;;;;;;;;5076182;28;20454;-64
2022/08/03 04:48:25;;;;;;;13.23;6.70;;;;;;;;;;5075923;28;20446;-64
2022/08/03 04:50:52;;;;;;;7.37;6.67;;;;;;;;;;5076309;28;20435;-64
2022/08/03 04:53:19;;;;;;;9.10;7.40;;;;;;;;;;5076010;28;20441;-64
2022/08/03 04:55:48;;;;;;;9.23;7.93;;;;;;;;;;5076204;28;20482;-64
2022/08/03 04:58:15;;;;;;;9.60;8.53;;;;;;;;;;5075713;28;20952;-63
2022/08/03 05:00:44;;;;;;;11.27;9.57;;;;;;;;;;5076205;28;20437;-64
2022/08/03 05:03:11;;;;;;;11.30;9.53;;;;;;;;;;5075593;28;21043;-63
2022/08/03 05:05:38;;;;;;;10.03;9.00;;;;;;;;;;5076136;28;20510;-63
2022/08/03 05:08:06;;;;;;;10.63;9.03;;;;;;;;;;5075622;28;20489;-65
2022/08/03 05:10:33;;;;;;;13.60;9.20;;;;;;;;;;5075726;28;20457;-64
2022/08/03 05:13:03;;;;;;;10.63;9.63;;;;;;;;;;5075224;28;20452;-63
2022/08/03 05:15:30;;;;;;;10.70;9.60;;;;;;;;;;5075646;28;20472;-64
2022/08/03 05:17:57;;;;;;;9.53;8.47;;;;;;;;;;5075860;28;20475;-69
2022/08/03 05:20:24;;;;;;;11.10;7.90;;;;;;;;;;5075645;28;20471;-64
2022/08/03 05:22:52;;;;;;;13.73;10.17;;;;;;;;;;5075439;28;20537;-65
2022/08/03 05:25:19;;;;;;;10.47;8.23;;;;;;;;;;5075580;28;20497;-65
2022/08/03 05:27:46;;;;;;;10.50;9.30;;;;;;;;;;5075762;28;20471;-65
2022/08/03 05:30:15;;;;;;;8.00;7.13;;;;;;;;;;5074836;28;20853;-65
2022/08/03 05:32:42;;;;;;;9.73;7.43;;;;;;;;;;5075123;28;20538;-65
2022/08/03 05:35:09;;;;;;;9.00;7.07;;;;;;;;;;5075259;28;20440;-65
2022/08/03 05:37:37;;;;;;;8.83;6.63;;;;;;;;;;5075113;28;20442;-65
2022/08/03 05:40:04;;;;;;;10.03;7.87;;;;;;;;;;5074892;28;20538;-65
2022/08/03 05:42:31;;;;;;;9.20;8.13;;;;;;;;;;5074739;28;21008;-65
2022/08/03 05:44:59;;;;;;;11.90;7.87;;;;;;;;;;5075125;28;20462;-65
2022/08/03 05:47:27;;;;;;;11.77;9.03;;;;;;;;;;5075231;28;20524;-65
2022/08/03 05:49:54;;;;;;;11.77;8.20;;;;;;;;;;5074813;28;20441;-65
2022/08/03 05:52:22;;;;;;;9.60;7.60;;;;;;;;;;5074963;28;20527;-65
2022/08/03 05:54:49;;;;;;;12.33;7.80;;;;;;;;;;5074993;28;20451;-65
2022/08/03 05:57:16;;;;;;;11.27;7.40;;;;;;;;;;5074947;28;20480;-65
2022/08/03 05:59:43;;;;;;;11.57;7.50;;;;;;;;;;5074767;28;20934;-65
2022/08/03 06:02:10;;;;;;;10.50;8.57;;;;;;;;;;5074755;28;20524;-65
2022/08/03 06:04:39;;;;;;;8.30;6.60;;;;;;;;;;5074361;28;20432;-65
2022/08/03 06:07:06;;;;;;;10.30;6.80;;;;;;;;;;5074633;28;20539;-65
2022/08/03 06:09:33;;;;;;;8.97;7.10;;;;;;;;;;5074679;28;20440;-65
2022/08/03 06:12:01;;;;;;;10.17;7.00;;;;;;;;;;5074546;28;20535;-65
2022/08/03 06:14:28;;;;;;;11.17;7.10;;;;;;;;;;5074586;28;20436;-64
2022/08/03 06:16:55;;;;;;;7.43;5.77;;;;;;;;;;5074425;28;20498;-65
2022/08/03 06:19:23;;;;;;;8.10;5.90;;;;;;;;;;5074519;28;20456;-65
2022/08/03 06:21:51;;;;;;;8.03;5.73;;;;;;;;;;5074444;28;20448;-64
2022/08/03 06:24:19;;;;;;;6.87;5.97;;;;;;;;;;5074668;28;20459;-65
2022/08/03 06:26:46;;;;;;;5.93;5.33;;;;;;;;;;5074278;28;20868;-65
2022/08/03 06:29:13;;;;;;;6.83;5.33;;;;;;;;;;5073819;28;20441;-65
2022/08/03 06:31:40;;;;;;;9.27;5.97;;;;;;;;;;5074221;28;20847;-65
2022/08/03 06:34:07;;;;;;;6.67;5.60;;;;;;;;;;5074387;28;20441;-65
2022/08/03 06:36:35;;;;;;;10.37;5.90;;;;;;;;;;5074362;28;20482;-65
2022/08/03 06:39:04;;;;;;;11.83;6.90;;;;;;;;;;5073995;28;20851;-65
2022/08/03 06:41:31;;;;;;;6.97;6.00;;;;;;;;;;5073274;28;20433;-65
2022/08/03 06:43:58;;;;;;;10.30;6.50;;;;;;;;;;5073521;28;20955;-65
2022/08/03 06:46:25;;;;;;;6.57;5.87;;;;;;;;;;5074122;28;20957;-65
2022/08/03 06:48:53;;;;;;;7.70;5.53;;;;;;;;;;5073560;28;20437;-65
2022/08/03 06:51:22;;;;;;;6.30;5.70;;;;;;;;;;5073940;28;20495;-65
2022/08/03 06:53:49;;;;;;;7.97;6.30;;;;;;;;;;5073853;28;20449;-65
2022/08/03 06:56:19;;;;;;;7.83;5.93;;;;;;;;;;5074132;28;20514;-65
2022/08/03 06:58:47;;;;;;;9.10;5.47;;;;;;;;;;5073401;28;20437;-65
2022/08/03 07:01:14;;;;;;;13.37;5.77;;;;;;;;;;5073738;28;20498;-65
2022/08/03 07:03:42;;;;;;;10.53;5.90;;;;;;;;;;5073663;28;20535;-65
2022/08/03 07:06:09;;;;;;;7.97;6.57;;;;;;;;;;5073385;28;20958;-65
2022/08/03 07:08:36;;;;;;;6.20;5.60;;;;;;;;;;5073240;28;20452;-65
2022/08/03 07:11:04;;;;;;;6.23;5.60;;;;;;;;;;5073789;28;20533;-64
2022/08/03 07:13:32;;;;;;;8.63;5.13;;;;;;;;;;5073775;28;20440;-65
2022/08/03 07:15:59;;;;;;;7.60;6.13;;;;;;;;;;5073384;28;20548;-65
2022/08/03 07:18:27;;;;;;;8.07;5.73;;;;;;;;;;5073688;28;20432;-65
2022/08/03 07:20:54;;;;;;;6.50;5.30;;;;;;;;;;5073462;28;20521;-65
2022/08/03 07:23:21;;;;;;;9.07;6.10;;;;;;;;;;5073471;28;20538;-65
2022/08/03 07:25:49;;;;;;;14.30;7.03;;;;;;;;;;5073075;28;20447;-64
2022/08/03 07:28:16;;;;;;;6.77;4.73;;;;;;;;;;5073624;28;20528;-64
2022/08/03 07:30:45;;;;;;;5.53;4.90;;;;;;;;;;5073320;28;20442;-64
2022/08/03 07:33:12;;;;;;;6.33;4.53;;;;;;;;;;5073457;28;20478;-64
2022/08/03 07:35:40;;;;;;;6.20;5.20;;;;;;;;;;5073398;28;20470;-64
2022/08/03 07:38:07;;;;;;;6.23;4.97;;;;;;;;;;5073266;28;20485;-65
2022/08/03 07:40:34;;;;;;;6.30;4.57;;;;;;;;;;5073410;28;20454;-65
2022/08/03 07:43:02;;;;;;;13.67;3.93;;;;;;;;;;5073470;28;20441;-65
2022/08/03 07:45:30;;;;;;;6.93;4.40;;;;;;;;;;5073226;28;20534;-64
2022/08/03 07:47:58;;;;;;;5.60;4.40;;;;;;;;;;5073339;28;20531;-64
2022/08/03 07:50:26;;;;;;;5.70;3.43;;;;;;;;;;5073241;28;20541;-65
2022/08/03 07:52:54;;;;;;;7.70;4.10;;;;;;;;;;5075750;28;20446;-65
2022/08/03 07:55:22;;;;;;;5.80;4.20;;;;;;;;;;5076816;28;20538;-65
2022/08/03 07:58:00;;;;;;;6.97;4.17;;;;;;;;;;5076775;28;20556;-65
2022/08/03 08:00:27;;;;;;;8.63;4.50;;;;;;;;;;5077317;28;20424;-65
2022/08/03 08:02:54;;;;;;;4.90;3.70;;;;;;;;;;5076953;28;20527;-65
2022/08/03 08:05:23;;;;;;;8.23;3.83;;;;;;;;;;5076839;28;20531;-65
2022/08/03 08:07:50;;;;;;;7.87;3.40;;;;;;;;;;5076944;28;20531;-65
2022/08/03 08:10:17;;;;;;;4.50;3.33;;;;;;;;;;5076539;28;20535;-64
2022/08/03 08:12:44;;;;;;;5.17;4.10;;;;;;;;;;5076464;28;20528;-65
2022/08/03 08:15:12;;;;;;;8.87;4.23;;;;;;;;;;5076404;28;20523;-65
2022/08/03 08:17:43;;;;;;;3.07;2.77;;;;;;;;;;5077100;28;20522;-64
2022/08/03 08:20:11;;;;;;;6.30;4.00;;;;;;;;;;5077308;28;20438;-65
2022/08/03 08:22:39;;;;;;;3.27;2.70;;;;;;;;;;5076900;28;20790;-66
2022/08/03 08:25:07;;;;;;;7.37;4.10;;;;;;;;;;5076904;28;20549;-65
2022/08/03 08:27:34;;;;;;;5.27;3.70;;;;;;;;;;5076236;28;20472;-65
2022/08/03 08:30:04;;;;;;;4.57;3.67;;;;;;;;;;5076295;28;20998;-66
2022/08/03 08:32:32;;;;;;;7.70;3.77;;;;;;;;;;5077037;28;20492;-64
2022/08/03 08:34:59;;;;;;;7.53;3.33;;;;;;;;;;5076369;28;20438;-65
2022/08/03 08:37:26;;;;;;;5.03;3.60;;;;;;;;;;5076339;28;20483;-65
2022/08/03 08:39:56;;;;;;;4.87;3.43;;;;;;;;;;5076210;28;20544;-65
2022/08/03 08:42:23;;;;;;;4.67;3.47;;;;;;;;;;5076358;28;20627;-65
2022/08/03 08:44:50;;;;;;;6.80;4.13;;;;;;;;;;5076225;28;20454;-66
2022/08/03 08:47:19;;;;;;;4.93;3.17;;;;;;;;;;5076773;28;20541;-65
2022/08/03 08:49:47;;;;;;;3.77;3.37;;;;;;;;;;5075914;28;20532;-65
2022/08/03 08:52:15;;;;;;;5.07;3.00;;;;;;;;;;5076183;28;20947;-66
2022/08/03 08:54:43;;;;;;;6.27;3.57;;;;;;;;;;5076449;28;20486;-65
2022/08/03 08:57:19;;;;;;;5.33;3.30;;;;;;;;;;5075854;28;20486;-65
2022/08/03 08:59:46;;;;;;;7.13;3.37;;;;;;;;;;5075705;28;20447;-66
2022/08/03 09:02:13;;;;;;;13.90;4.10;;;;;;;;;;5075829;28;20451;-65
2022/08/03 09:04:41;;;;;;;4.73;3.20;;;;;;;;;;5075012;28;20533;-65
2022/08/03 09:07:08;;;;;;;3.97;3.57;;;;;;;;;;5075849;28;20438;-65
2022/08/03 09:09:36;;;;;;;5.33;3.00;;;;;;;;;;5075586;28;20992;-65
2022/08/03 09:12:03;;;;;;;5.40;3.50;;;;;;;;;;5075800;28;20458;-65
2022/08/03 09:14:31;;;;;;;6.43;3.57;;;;;;;;;;5075800;28;20907;-65
2022/08/03 09:17:00;;;;;;;3.87;3.53;;;;;;;;;;5075311;28;20577;-65
2022/08/03 09:19:28;;;;;;;5.33;3.30;;;;;;;;;;5075314;28;20482;-65
2022/08/03 09:22:08;;;;;;;4.10;3.50;;;;;;;;;;5075783;28;20451;-65
2022/08/03 09:24:35;;;;;;;5.13;3.47;;;;;;;;;;5075248;28;20449;-65
2022/08/03 09:27:03;;;;;;;5.20;3.03;;;;;;;;;;5075155;28;21027;-65
2022/08/03 09:29:33;;;;;;;6.70;3.23;;;;;;;;;;5075178;28;20526;-65
2022/08/03 09:32:01;;;;;;;4.43;3.00;;;;;;;;;;5075669;28;20435;-65
2022/08/03 09:34:29;;;;;;;6.10;3.60;;;;;;;;;;5074992;28;20453;-65
2022/08/03 09:36:57;;;;;;;3.77;3.10;;;;;;;;;;5074820;28;21045;-65
2022/08/03 09:39:25;;;;;;;11.33;3.53;;;;;;;;;;5075229;28;20975;-65
2022/08/03 09:42:05;;;;;;;7.53;2.93;;;;;;;;;;5074791;28;20951;-65
2022/08/03 09:44:36;;;;;;;5.30;2.60;;;;;;;;;;5074884;28;20426;-64
2022/08/03 09:47:04;;;;;;;3.23;2.90;;;;;;;;;;5075119;28;20464;-65
2022/08/03 09:49:31;;;;;;;5.83;3.10;;;;;;;;;;5075776;28;20441;-65
2022/08/03 09:52:02;;;;;;;13.70;3.00;;;;;;;;;;5074993;28;20869;-65
2022/08/03 09:54:29;;;;;;;3.30;2.80;;;;;;;;;;5075162;28;20451;-65
2022/08/03 09:56:58;;;;;;;5.67;3.00;;;;;;;;;;5074791;28;20834;-65
2022/08/03 09:59:26;;;;;;;10.33;3.50;;;;;;;;;;5074849;28;20447;-65
2022/08/03 10:01:54;;;;;;;7.83;3.30;;;;;;;;;;5074860;28;20533;-64
2022/08/03 10:04:22;;;;;;;7.30;3.77;;;;;;;;;;5074717;28;20450;-64
2022/08/03 10:07:03;;;;;;;3.53;2.80;;;;;;;;;;5074640;28;20465;-64
2022/08/03 10:09:30;;;;;;;6.47;3.47;;;;;;;;;;5075357;28;20470;-65
2022/08/03 10:11:58;;;;;;;9.27;2.73;;;;;;;;;;5074628;28;20448;-64
2022/08/03 10:14:30;;;;;;;5.17;3.40;;;;;;;;;;5074527;28;20466;-65
2022/08/03 10:16:59;;;;;;;8.13;3.50;;;;;;;;;;5074291;28;20474;-64
2022/08/03 10:19:26;;;;;;;5.30;3.73;;;;;;;;;;5074459;28;20533;-65
2022/08/03 10:21:56;;;;;;;5.50;3.03;;;;;;;;;;5074033;28;21017;-64
2022/08/03 10:24:26;;;;;;;5.20;3.30;;;;;;;;;;5074441;28;20925;-65
2022/08/03 10:26:54;;;;;;;6.00;3.07;;;;;;;;;;5074156;28;20444;-65
2022/08/03 10:29:24;;;;;;;5.30;3.40;;;;;;;;;;5074291;28;21047;-65
2022/08/03 10:31:54;;;;;;;3.30;2.87;;;;;;;;;;5073870;28;20438;-65
2022/08/03 10:34:26;;;;;;;4.57;3.20;;;;;;;;;;5074289;28;20489;-65
2022/08/03 10:36:56;;;;;;;7.30;3.80;;;;;;;;;;5074119;28;20430;-65
2022/08/03 10:39:24;;;;;;;3.90;3.27;;;;;;;;;;5074167;28;20443;-64
2022/08/03 10:41:53;;;;;;;5.27;3.23;;;;;;;;;;5073675;28;20414;-64
2022/08/03 10:44:21;;;;;;;4.93;3.40;;;;;;;;;;5074012;28;20482;-64
2022/08/03 10:46:49;;;;;;;4.67;2.97;;;;;;;;;;5073508;28;20941;-65
2022/08/03 10:49:17;;;;;;;5.67;3.00;;;;;;;;;;5073461;28;20451;-65
2022/08/03 10:51:47;;;;;;;5.00;3.03;;;;;;;;;;5073928;28;20446;-65
2022/08/03 10:54:32;;;;;;;3.87;3.00;;;;;;;;;;5073540;28;20518;-64
2022/08/03 11:00:06;;;;;;;3.13;2.80;;;;;;;;;;5073585;28;20405;-65
2022/08/03 11:02:51;;;;;;;5.90;2.93;;;;;;;;;;5068768;28;20445;-64
2022/08/03 11:05:28;;;;;;;5.23;3.20;;;;;;;;;;5073443;28;20420;-64
2022/08/03 11:08:14;;;;;;;6.63;3.90;;;;;;;;;;5073828;28;20481;-64
2022/08/03 11:10:42;;;;;;;3.87;3.03;;;;;;;;;;5073634;28;20472;-64
2022/08/03 11:13:10;;;;;;;9.37;3.13;;;;;;;;;;5073755;28;20503;-65
2022/08/03 11:15:37;;;;;;;7.40;3.07;;;;;;;;;;5073340;28;20521;-65
2022/08/03 11:18:09;;;;;;;5.60;3.37;;;;;;;;;;5073108;28;20575;-64
2022/08/03 11:20:51;;;;;;;6.27;3.87;;;;;;;;;;5073481;28;20438;-65
2022/08/03 11:23:19;;;;;;;6.30;3.70;;;;;;;;;;5071379;28;20463;-65
2022/08/03 11:26:05;;;;;;;5.37;3.50;;;;;;;;;;5073602;28;20452;-65
2022/08/03 11:28:34;;;;;;;4.10;3.27;;;;;;;;;;5072941;28;20447;-65
2022/08/03 11:31:16;;;;;;;6.67;3.33;;;;;;;;;;5073112;28;20424;-64
2022/08/03 11:33:43;;;;;;;5.63;3.30;;;;;;;;;;5072994;28;20500;-65
2022/08/03 11:36:10;;;;;;;4.07;3.30;;;;;;;;;;5073440;28;20495;-64
2022/08/03 11:38:57;;;;;;;5.50;3.43;;;;;;;;;;5073436;28;20817;-64
2022/08/03 11:41:33;;;;;;;7.90;3.20;;;;;;;;;;5073336;28;20487;-64
2022/08/03 11:44:02;;;;;;;4.17;3.17;;;;;;;;;;5073330;28;20428;-64
2022/08/03 11:46:37;;;;;;;8.10;3.60;;;;;;;;;;5073280;28;20465;-64
2022/08/03 11:49:06;;;;;;;6.37;3.70;;;;;;;;;;5073382;28;20465;-64
2022/08/03 11:51:33;;;;;;;7.23;3.00;;;;;;;;;;5073195;28;20429;-64
2022/08/03 11:54:01;;;;;;;5.47;3.50;;;;;;;;;;5073175;28;20452;-64
2022/08/03 11:56:29;;;;;;;6.27;3.60;;;;;;;;;;5072925;28;20411;-64
2022/08/03 11:58:58;;;;;;;4.97;3.37;;;;;;;;;;5072667;28;20446;-64
2022/08/03 12:01:26;;;;;;;6.13;3.57;;;;;;;;;;5073365;28;20453;-64
2022/08/03 12:03:54;;;;;;;5.93;3.50;;;;;;;;;;5073024;28;20502;-65
2022/08/03 12:06:22;;;;;;;4.00;3.07;;;;;;;;;;5073082;28;20493;-64
2022/08/03 12:08:49;;;;;;;10.83;3.67;;;;;;;;;;5072651;28;20512;-64
2022/08/03 12:11:17;;;;;;;5.27;3.10;;;;;;;;;;5073060;28;20450;-64
2022/08/03 12:13:46;;;;;;;6.00;3.00;;;;;;;;;;5073220;28;20496;-65
2022/08/03 12:16:18;;;;;;;7.03;3.33;;;;;;;;;;5072966;28;20475;-65
2022/08/03 12:18:46;;;;;;;5.60;2.80;;;;;;;;;;5073044;28;20837;-65
2022/08/03 12:21:15;;;;;;;5.97;2.90;;;;;;;;;;5073279;28;20523;-65
2022/08/03 12:23:42;;;;;;;7.30;3.13;;;;;;;;;;5072959;28;20429;-66
2022/08/03 12:26:10;;;;;;;9.07;3.37;;;;;;;;;;5072912;28;20424;-65
2022/08/03 12:28:38;;;;;;;5.83;3.33;;;;;;;;;;5072478;28;20928;-65
2022/08/03 12:31:06;;;;;;;10.50;3.10;;;;;;;;;;5073681;28;20447;-65
2022/08/03 12:33:33;;;;;;;12.67;3.93;;;;;;;;;;5072746;28;20412;-65
2022/08/03 12:36:07;;;;;;;4.03;2.93;;;;;;;;;;5072556;28;20987;-64
2022/08/03 12:38:34;;;;;;;6.27;2.97;;;;;;;;;;5073186;28;20548;-65
2022/08/03 12:41:03;;;;;;;5.17;3.00;;;;;;;;;;5075953;28;20439;-65
2022/08/03 12:43:30;;;;;;;3.73;2.90;;;;;;;;;;5075911;28;20936;-65
2022/08/03 12:46:07;;;;;;;7.93;3.60;;;;;;;;;;5075919;28;20500;-64
2022/08/03 12:48:35;;;;;;;7.07;3.20;;;;;;;;;;5076119;28;20476;-65
2022/08/03 12:51:11;;;;;;;10.03;3.50;;;;;;;;;;5076813;28;20493;-65
2022/08/03 12:53:38;;;;;;;8.67;3.60;;;;;;;;;;5075979;28;20447;-63
2022/08/03 12:56:06;;;;;;;9.03;4.23;;;;;;;;;;5076211;28;20538;-64
2022/08/03 12:58:34;;;;;;;10.43;3.87;;;;;;;;;;5075899;28;20456;-64
2022/08/03 13:01:01;;;;;;;11.87;3.47;;;;;;;;;;5076592;28;20416;-64
2022/08/03 13:03:28;;;;;;;6.80;3.30;;;;;;;;;;5075477;28;20504;-64
2022/08/03 13:05:56;;;;;;;7.10;3.10;;;;;;;;;;5075864;28;20454;-64
2022/08/03 13:08:25;;;;;;;5.83;3.00;;;;;;;;;;5076033;28;20458;-64
2022/08/03 13:10:53;;;;;;;7.87;3.57;;;;;;;;;;5075837;28;20541;-64
2022/08/03 13:13:38;;;;;;;7.93;3.10;;;;;;;;;;5075726;28;20514;-64
2022/08/03 13:16:05;;;;;;;5.17;3.43;;;;;;;;;;5074916;28;20449;-63
2022/08/03 13:18:32;;;;;;;6.20;3.07;;;;;;;;;;5075030;28;20453;-64
2022/08/03 13:21:00;;;;;;;10.60;3.90;;;;;;;;;;5075733;28;20426;-64
2022/08/03 13:23:28;;;;;;;5.37;3.03;;;;;;;;;;5075267;28;20774;-63
2022/08/03 13:25:56;;;;;;;7.50;2.97;;;;;;;;;;5075316;28;20604;-64
2022/08/03 13:28:23;;;;;;;8.30;3.10;;;;;;;;;;5075281;28;20986;-63
2022/08/03 13:30:50;;;;;;;6.23;2.70;;;;;;;;;;5075139;28;20442;-64
2022/08/03 13:33:18;;;;;;;6.70;2.27;;;;;;;;;;5075227;28;20528;-64
2022/08/03 13:35:45;;;;;;;6.53;3.20;;;;;;;;;;5074752;28;20524;-65
2022/08/03 13:38:12;;;;;;;5.87;2.70;;;;;;;;;;5074701;28;20513;-64
2022/08/03 13:40:41;;;;;;;9.00;3.50;;;;;;;;;;5075090;28;20577;-64
2022/08/03 13:43:08;;;;;;;6.17;3.53;;;;;;;;;;5075948;28;20526;-65
2022/08/03 13:45:35;;;;;;;3.93;2.60;;;;;;;;;;5074405;28;20530;-64
2022/08/03 13:48:02;;;;;;;8.40;3.13;;;;;;;;;;5075047;28;20449;-64
2022/08/03 13:50:30;;;;;;;6.00;2.60;;;;;;;;;;5074579;28;20444;-64
2022/08/03 13:52:57;;;;;;;7.27;2.80;;;;;;;;;;5074830;28;20842;-64
2022/08/03 13:55:25;;;;;;;3.60;2.57;;;;;;;;;;5074199;28;20454;-64
2022/08/03 13:57:53;;;;;;;7.80;2.80;;;;;;;;;;5075180;28;20789;-64
2022/08/03 14:00:23;;;;;;;11.20;2.50;;;;;;;;;;5074874;28;20472;-64
2022/08/03 14:02:50;;;;;;;8.57;2.63;;;;;;;;;;5074303;28;20490;-64
2022/08/03 14:05:17;;;;;;;8.40;2.53;;;;;;;;;;5074301;28;20469;-64
2022/08/03 14:07:45;;;;;;;5.43;2.43;;;;;;;;;;5074299;28;20534;-64
2022/08/03 14:10:13;;;;;;;7.00;2.40;;;;;;;;;;5074013;28;20492;-64
2022/08/03 14:12:41;;;;;;;4.60;2.33;;;;;;;;;;5074353;28;20455;-64
2022/08/03 14:15:11;;;;;;;5.07;2.20;;;;;;;;;;5073535;28;20953;-64
2022/08/03 14:17:39;;;;;;;11.10;3.10;;;;;;;;;;5074775;28;20471;-64
2022/08/03 14:20:07;;;;;;;11.50;2.50;;;;;;;;;;5073127;28;20484;-64
2022/08/03 14:22:34;;;;;;;9.60;2.60;;;;;;;;;;5074415;28;20441;-64
2022/08/03 14:25:02;;;;;;;3.30;1.73;;;;;;;;;;5074820;28;20973;-64
2022/08/03 14:27:29;;;;;;;11.20;3.70;;;;;;;;;;5073701;28;20448;-64
2022/08/03 14:29:58;;;;;;;4.77;2.13;;;;;;;;;;5073962;28;20443;-64
2022/08/03 14:32:27;;;;;;;5.27;2.10;;;;;;;;;;5074116;28;20470;-64
2022/08/03 14:34:55;;;;;;;5.13;2.13;;;;;;;;;;5073928;28;20476;-65
2022/08/03 14:37:22;;;;;;;7.53;2.97;;;;;;;;;;5073881;28;20942;-64
2022/08/03 14:39:49;;;;;;;6.13;2.00;;;;;;;;;;5073329;28;20974;-64
2022/08/03 14:42:17;;;;;;;5.70;2.27;;;;;;;;;;5073599;28;20494;-64
2022/08/03 14:44:44;;;;;;;7.57;2.30;;;;;;;;;;5073721;28;20532;-65
2022/08/03 14:47:11;;;;;;;6.33;2.30;;;;;;;;;;5073213;28;20449;-64
2022/08/03 14:49:40;;;;;;;7.77;2.50;;;;;;;;;;5074181;28;20495;-64
2022/08/03 14:52:07;;;;;;;5.53;2.23;;;;;;;;;;5073304;28;20469;-64
2022/08/03 14:54:34;;;;;;;6.33;2.23;;;;;;;;;;5073355;28;20539;-64
2022/08/03 14:57:02;;;;;;;4.87;2.30;;;;;;;;;;5073224;28;20996;-64